Addisleigh Park, NY

2:18 PM EDT on August 31, 2015 (GMT -0400)
Addisleigh Park | | Change Station
CLOSE
Current Station
Personal Weather Station
Location: New York, NY
Elevation: 36 ft
Nearby Weather Stations

Elev 36 ft 40.70 °N, 73.77 °W | Updated 12 seconds ago

Mostly Cloudy
Mostly Cloudy
90.1 °F
Feels Like 92 °F
N
7.2
Wind Variable Wind from WNW
Gusts 9.8 mph

Today
High -- | Low -- °F
--% Chance of Precip.
Yesterday
High -- | Low -- °F
Precip. -- in
6:20 AM 7:29 PM
Waning Gibbous, 94% visible
Pressure 30.01 in
Visibility 10.0 miles
Clouds Few 5500 ft
Scattered Clouds 12000 ft
Mostly Cloudy 25000 ft
Heat Index 92 °F
Dew Point 65 °F
Humidity 44%
Rainfall in
Snow Depth Not available.
UV 3.0 out of 12
Pollen 10.60 out of 12
Air Quality Not available.
Flu Activity Not available.
METAR KJFK 311751Z 23010KT 10SM FEW055 SCT120 BKN250 31/19 A3001 RMK AO2 SLP161 T03110194 10311 20250 58013
Pressure 30.01 in
Visibility 10.0 miles
Clouds Few 5500 ft
Scattered Clouds 12000 ft
Mostly Cloudy 25000 ft
Heat Index 92 °F
Dew Point 65 °F
Humidity 44%
Rainfall in
Snow Depth Not available.
UV 3.0 out of 12
Pollen 10.60 out of 12
Air Quality Not available.
Flu Activity Not available.
METAR KJFK 311751Z 23010KT 10SM FEW055 SCT120 BKN250 31/19 A3001 RMK AO2 SLP161 T03110194 10311 20250 58013

10-Day Weather Forecast

×

Almanac

Astronomy

Aug. 31, 2015 Rise Set
Actual Time
Civil Twilight
Nautical Twilight
Astronomical Twilight
Moon
Length of Visible Light
Length of Day
Tomorrow will be .
, % of the Moon is Illuminated

Today's Extremes

State Highs State Lows

Community

WunderPhotos

Upload Photos

1,851,327 photos uploaded!

WunderBlogs® & News

Nearby

Air Quality

  Air Quality AQ Index Pollutant
Not available.

Snow Depth

Station Depth Elevation

Earthquake Activity

City Distance Mag. Time & Date
Minimum magnitude displayed is 2.5.

Coastal Water Temperatures

Place Temperature

Stations

Nearby Weather Stations

Station Location Temp. Windchill Dew Point Humidity Wind Precip. Elev Updated Type